sensor_id;sensor_type;location;lat;lon;timestamp;P1;durP1;ratioP1;P2;durP2;ratioP2
8297;SDS011;4187;42.778;23.242;2023-03-01T00:00:00;4.90;;;3.50;;
8297;SDS011;4187;42.778;23.242;2023-03-01T00:02:28;5.27;;;3.73;;
8297;SDS011;4187;42.778;23.242;2023-03-01T00:04:55;2.90;;;2.40;;
8297;SDS011;4187;42.778;23.242;2023-03-01T00:07:23;4.60;;;3.50;;
8297;SDS011;4187;42.778;23.242;2023-03-01T00:09:50;3.47;;;2.80;;
8297;SDS011;4187;42.778;23.242;2023-03-01T00:12:17;4.50;;;3.10;;
8297;SDS011;4187;42.778;23.242;2023-03-01T00:14:43;3.97;;;2.90;;
8297;SDS011;4187;42.778;23.242;2023-03-01T00:17:10;3.90;;;2.80;;
8297;SDS011;4187;42.778;23.242;2023-03-01T00:19:37;4.30;;;2.47;;
8297;SDS011;4187;42.778;23.242;2023-03-01T00:22:04;4.70;;;2.93;;
8297;SDS011;4187;42.778;23.242;2023-03-01T00:24:32;5.63;;;3.20;;
8297;SDS011;4187;42.778;23.242;2023-03-01T00:26:59;6.27;;;3.90;;
8297;SDS011;4187;42.778;23.242;2023-03-01T00:29:26;8.63;;;3.83;;
8297;SDS011;4187;42.778;23.242;2023-03-01T00:31:53;5.77;;;3.33;;
8297;SDS011;4187;42.778;23.242;2023-03-01T00:34:19;4.70;;;3.53;;
8297;SDS011;4187;42.778;23.242;2023-03-01T00:36:46;4.77;;;3.40;;
8297;SDS011;4187;42.778;23.242;2023-03-01T00:39:14;8.43;;;3.33;;
8297;SDS011;4187;42.778;23.242;2023-03-01T00:41:43;5.00;;;3.30;;
8297;SDS011;4187;42.778;23.242;2023-03-01T00:44:10;4.90;;;3.30;;
8297;SDS011;4187;42.778;23.242;2023-03-01T00:46:37;4.30;;;3.23;;
8297;SDS011;4187;42.778;23.242;2023-03-01T00:49:04;4.33;;;2.90;;
8297;SDS011;4187;42.778;23.242;2023-03-01T00:51:31;4.37;;;3.37;;
8297;SDS011;4187;42.778;23.242;2023-03-01T00:54:00;9.73;;;4.70;;
8297;SDS011;4187;42.778;23.242;2023-03-01T00:56:29;4.47;;;3.00;;
8297;SDS011;4187;42.778;23.242;2023-03-01T00:58:58;3.17;;;2.83;;
8297;SDS011;4187;42.778;23.242;2023-03-01T01:01:25;2.47;;;2.27;;
8297;SDS011;4187;42.778;23.242;2023-03-01T01:03:56;3.50;;;2.77;;
8297;SDS011;4187;42.778;23.242;2023-03-01T01:06:24;4.37;;;3.00;;
8297;SDS011;4187;42.778;23.242;2023-03-01T01:08:53;2.83;;;2.53;;
8297;SDS011;4187;42.778;23.242;2023-03-01T01:11:21;2.57;;;2.23;;
8297;SDS011;4187;42.778;23.242;2023-03-01T01:13:49;4.07;;;2.90;;
8297;SDS011;4187;42.778;23.242;2023-03-01T01:16:18;3.17;;;2.60;;
8297;SDS011;4187;42.778;23.242;2023-03-01T01:18:45;3.33;;;3.03;;
8297;SDS011;4187;42.778;23.242;2023-03-01T01:21:13;3.37;;;2.77;;
8297;SDS011;4187;42.778;23.242;2023-03-01T01:23:42;3.80;;;3.00;;
8297;SDS011;4187;42.778;23.242;2023-03-01T01:26:10;3.50;;;3.20;;
8297;SDS011;4187;42.778;23.242;2023-03-01T01:28:39;4.27;;;3.17;;
8297;SDS011;4187;42.778;23.242;2023-03-01T01:31:05;4.37;;;3.23;;
8297;SDS011;4187;42.778;23.242;2023-03-01T01:33:34;3.83;;;2.90;;
8297;SDS011;4187;42.778;23.242;2023-03-01T01:36:02;3.30;;;2.17;;
8297;SDS011;4187;42.778;23.242;2023-03-01T01:38:30;2.30;;;2.00;;
8297;SDS011;4187;42.778;23.242;2023-03-01T01:40:57;2.17;;;1.90;;
8297;SDS011;4187;42.778;23.242;2023-03-01T01:43:24;2.47;;;1.80;;
8297;SDS011;4187;42.778;23.242;2023-03-01T01:45:53;2.37;;;1.80;;
8297;SDS011;4187;42.778;23.242;2023-03-01T01:48:23;4.17;;;3.30;;
8297;SDS011;4187;42.778;23.242;2023-03-01T01:51:06;4.57;;;3.10;;
8297;SDS011;4187;42.778;23.242;2023-03-01T01:53:35;3.33;;;2.63;;
8297;SDS011;4187;42.778;23.242;2023-03-01T01:56:05;2.10;;;1.90;;
8297;SDS011;4187;42.778;23.242;2023-03-01T01:58:35;3.03;;;2.00;;
8297;SDS011;4187;42.778;23.242;2023-03-01T02:01:03;3.90;;;2.53;;
8297;SDS011;4187;42.778;23.242;2023-03-01T02:03:30;3.70;;;2.70;;
8297;SDS011;4187;42.778;23.242;2023-03-01T02:06:04;3.67;;;3.00;;
8297;SDS011;4187;42.778;23.242;2023-03-01T02:08:38;2.40;;;2.10;;
8297;SDS011;4187;42.778;23.242;2023-03-01T02:11:08;2.50;;;2.00;;
8297;SDS011;4187;42.778;23.242;2023-03-01T02:13:36;2.53;;;1.90;;
8297;SDS011;4187;42.778;23.242;2023-03-01T02:16:04;3.63;;;2.53;;
8297;SDS011;4187;42.778;23.242;2023-03-01T02:18:34;3.20;;;2.60;;
8297;SDS011;4187;42.778;23.242;2023-03-01T02:21:13;2.70;;;1.77;;
8297;SDS011;4187;42.778;23.242;2023-03-01T02:23:57;1.70;;;1.60;;
8297;SDS011;4187;42.778;23.242;2023-03-01T02:26:32;1.60;;;1.30;;
8297;SDS011;4187;42.778;23.242;2023-03-01T02:29:06;1.70;;;1.40;;
8297;SDS011;4187;42.778;23.242;2023-03-01T02:31:33;1.87;;;1.57;;
8297;SDS011;4187;42.778;23.242;2023-03-01T02:34:08;3.13;;;1.50;;
8297;SDS011;4187;42.778;23.242;2023-03-01T02:36:37;1.47;;;1.20;;
8297;SDS011;4187;42.778;23.242;2023-03-01T02:39:07;2.23;;;1.60;;
8297;SDS011;4187;42.778;23.242;2023-03-01T02:41:39;2.40;;;1.77;;
8297;SDS011;4187;42.778;23.242;2023-03-01T02:44:10;2.23;;;1.57;;
8297;SDS011;4187;42.778;23.242;2023-03-01T02:46:42;4.40;;;2.70;;
8297;SDS011;4187;42.778;23.242;2023-03-01T02:49:22;3.03;;;2.47;;
8297;SDS011;4187;42.778;23.242;2023-03-01T02:52:01;3.73;;;2.70;;
8297;SDS011;4187;42.778;23.242;2023-03-01T02:54:46;4.93;;;3.20;;
8297;SDS011;4187;42.778;23.242;2023-03-01T02:57:15;5.47;;;4.07;;
8297;SDS011;4187;42.778;23.242;2023-03-01T02:59:44;5.83;;;4.27;;
8297;SDS011;4187;42.778;23.242;2023-03-01T03:02:19;6.27;;;4.10;;
8297;SDS011;4187;42.778;23.242;2023-03-01T03:05:00;6.20;;;4.80;;
8297;SDS011;4187;42.778;23.242;2023-03-01T03:07:28;5.13;;;3.60;;
8297;SDS011;4187;42.778;23.242;2023-03-01T03:09:55;4.67;;;3.27;;
8297;SDS011;4187;42.778;23.242;2023-03-01T03:12:22;3.43;;;2.70;;
8297;SDS011;4187;42.778;23.242;2023-03-01T03:14:50;3.13;;;2.30;;
8297;SDS011;4187;42.778;23.242;2023-03-01T03:17:17;3.03;;;2.23;;
8297;SDS011;4187;42.778;23.242;2023-03-01T03:19:44;3.00;;;2.23;;
8297;SDS011;4187;42.778;23.242;2023-03-01T03:22:11;2.50;;;1.80;;
8297;SDS011;4187;42.778;23.242;2023-03-01T03:24:38;1.47;;;1.20;;
8297;SDS011;4187;42.778;23.242;2023-03-01T03:27:05;1.90;;;1.70;;
8297;SDS011;4187;42.778;23.242;2023-03-01T03:29:33;2.43;;;2.17;;
8297;SDS011;4187;42.778;23.242;2023-03-01T03:32:01;2.27;;;2.07;;
8297;SDS011;4187;42.778;23.242;2023-03-01T03:34:28;1.93;;;1.67;;
8297;SDS011;4187;42.778;23.242;2023-03-01T03:36:55;1.90;;;1.57;;
8297;SDS011;4187;42.778;23.242;2023-03-01T03:39:24;2.50;;;2.20;;
8297;SDS011;4187;42.778;23.242;2023-03-01T03:41:51;1.90;;;1.47;;
8297;SDS011;4187;42.778;23.242;2023-03-01T03:44:18;2.60;;;2.17;;
8297;SDS011;4187;42.778;23.242;2023-03-01T03:46:45;2.73;;;1.80;;
8297;SDS011;4187;42.778;23.242;2023-03-01T03:49:13;1.67;;;1.57;;
8297;SDS011;4187;42.778;23.242;2023-03-01T03:51:40;1.90;;;1.70;;
8297;SDS011;4187;42.778;23.242;2023-03-01T03:54:07;3.03;;;1.93;;
8297;SDS011;4187;42.778;23.242;2023-03-01T03:56:35;2.20;;;1.73;;
8297;SDS011;4187;42.778;23.242;2023-03-01T03:59:02;3.40;;;2.20;;
8297;SDS011;4187;42.778;23.242;2023-03-01T04:01:31;5.73;;;2.90;;
8297;SDS011;4187;42.778;23.242;2023-03-01T04:03:57;3.53;;;2.83;;
8297;SDS011;4187;42.778;23.242;2023-03-01T04:06:30;3.20;;;2.30;;
8297;SDS011;4187;42.778;23.242;2023-03-01T04:08:57;2.97;;;2.10;;
8297;SDS011;4187;42.778;23.242;2023-03-01T04:11:25;1.70;;;1.40;;
8297;SDS011;4187;42.778;23.242;2023-03-01T04:13:53;2.77;;;2.27;;
8297;SDS011;4187;42.778;23.242;2023-03-01T04:16:20;5.83;;;4.00;;
8297;SDS011;4187;42.778;23.242;2023-03-01T04:18:48;6.87;;;2.53;;
8297;SDS011;4187;42.778;23.242;2023-03-01T04:21:15;2.47;;;1.53;;
8297;SDS011;4187;42.778;23.242;2023-03-01T04:23:44;3.03;;;2.33;;
8297;SDS011;4187;42.778;23.242;2023-03-01T04:26:10;2.73;;;1.80;;
8297;SDS011;4187;42.778;23.242;2023-03-01T04:28:37;2.20;;;1.90;;
8297;SDS011;4187;42.778;23.242;2023-03-01T04:31:08;2.30;;;1.80;;
8297;SDS011;4187;42.778;23.242;2023-03-01T04:33:39;2.60;;;2.03;;
8297;SDS011;4187;42.778;23.242;2023-03-01T04:36:07;3.73;;;2.93;;
8297;SDS011;4187;42.778;23.242;2023-03-01T04:38:35;2.90;;;2.40;;
8297;SDS011;4187;42.778;23.242;2023-03-01T04:41:05;2.97;;;2.17;;
8297;SDS011;4187;42.778;23.242;2023-03-01T04:43:32;3.70;;;2.50;;
8297;SDS011;4187;42.778;23.242;2023-03-01T04:46:00;8.73;;;3.27;;
8297;SDS011;4187;42.778;23.242;2023-03-01T04:48:28;2.53;;;2.07;;
8297;SDS011;4187;42.778;23.242;2023-03-01T04:50:55;2.30;;;2.10;;
8297;SDS011;4187;42.778;23.242;2023-03-01T04:53:22;3.10;;;2.43;;
8297;SDS011;4187;42.778;23.242;2023-03-01T04:55:49;3.23;;;2.53;;
8297;SDS011;4187;42.778;23.242;2023-03-01T04:58:18;4.17;;;2.80;;
8297;SDS011;4187;42.778;23.242;2023-03-01T05:00:44;4.43;;;2.40;;
8297;SDS011;4187;42.778;23.242;2023-03-01T05:03:11;3.23;;;2.60;;
8297;SDS011;4187;42.778;23.242;2023-03-01T05:05:43;2.83;;;2.37;;
8297;SDS011;4187;42.778;23.242;2023-03-01T05:08:12;3.80;;;2.83;;
8297;SDS011;4187;42.778;23.242;2023-03-01T05:10:43;3.17;;;2.73;;
8297;SDS011;4187;42.778;23.242;2023-03-01T05:13:12;3.23;;;2.93;;
8297;SDS011;4187;42.778;23.242;2023-03-01T05:15:47;3.07;;;2.30;;
8297;SDS011;4187;42.778;23.242;2023-03-01T05:18:15;4.47;;;2.73;;
8297;SDS011;4187;42.778;23.242;2023-03-01T05:20:42;3.37;;;2.33;;
8297;SDS011;4187;42.778;23.242;2023-03-01T05:23:09;1.70;;;1.40;;
8297;SDS011;4187;42.778;23.242;2023-03-01T05:25:37;3.83;;;2.00;;
8297;SDS011;4187;42.778;23.242;2023-03-01T05:28:05;4.50;;;1.77;;
8297;SDS011;4187;42.778;23.242;2023-03-01T05:30:35;3.60;;;2.33;;
8297;SDS011;4187;42.778;23.242;2023-03-01T05:33:05;2.70;;;2.10;;
8297;SDS011;4187;42.778;23.242;2023-03-01T05:35:38;3.93;;;3.20;;
8297;SDS011;4187;42.778;23.242;2023-03-01T05:38:06;4.30;;;3.90;;
8297;SDS011;4187;42.778;23.242;2023-03-01T05:40:33;5.03;;;4.10;;
8297;SDS011;4187;42.778;23.242;2023-03-01T05:43:00;3.93;;;3.53;;
8297;SDS011;4187;42.778;23.242;2023-03-01T05:45:30;3.30;;;2.80;;
8297;SDS011;4187;42.778;23.242;2023-03-01T05:47:58;1.90;;;1.47;;
8297;SDS011;4187;42.778;23.242;2023-03-01T05:50:28;2.10;;;1.67;;
8297;SDS011;4187;42.778;23.242;2023-03-01T05:52:57;1.90;;;1.30;;
8297;SDS011;4187;42.778;23.242;2023-03-01T05:55:25;1.70;;;1.60;;
8297;SDS011;4187;42.778;23.242;2023-03-01T05:57:52;2.70;;;2.50;;
8297;SDS011;4187;42.778;23.242;2023-03-01T06:00:20;5.43;;;3.37;;
8297;SDS011;4187;42.778;23.242;2023-03-01T06:02:48;2.67;;;2.47;;
8297;SDS011;4187;42.778;23.242;2023-03-01T06:05:15;1.20;;;0.90;;
8297;SDS011;4187;42.778;23.242;2023-03-01T06:07:43;1.57;;;1.10;;
8297;SDS011;4187;42.778;23.242;2023-03-01T06:10:11;1.43;;;1.20;;
8297;SDS011;4187;42.778;23.242;2023-03-01T06:12:39;1.67;;;1.30;;
8297;SDS011;4187;42.778;23.242;2023-03-01T06:15:08;2.50;;;2.03;;
8297;SDS011;4187;42.778;23.242;2023-03-01T06:17:36;1.70;;;1.57;;
8297;SDS011;4187;42.778;23.242;2023-03-01T06:20:07;1.10;;;0.90;;
8297;SDS011;4187;42.778;23.242;2023-03-01T06:22:36;1.40;;;0.97;;
8297;SDS011;4187;42.778;23.242;2023-03-01T06:25:06;1.40;;;1.30;;
8297;SDS011;4187;42.778;23.242;2023-03-01T06:27:34;2.50;;;1.80;;
8297;SDS011;4187;42.778;23.242;2023-03-01T06:30:01;2.63;;;2.37;;
8297;SDS011;4187;42.778;23.242;2023-03-01T06:32:28;3.73;;;2.20;;
8297;SDS011;4187;42.778;23.242;2023-03-01T06:34:55;5.13;;;2.07;;
8297;SDS011;4187;42.778;23.242;2023-03-01T06:37:23;1.50;;;1.40;;
8297;SDS011;4187;42.778;23.242;2023-03-01T06:39:50;1.87;;;1.67;;
8297;SDS011;4187;42.778;23.242;2023-03-01T06:42:18;3.57;;;2.00;;
8297;SDS011;4187;42.778;23.242;2023-03-01T06:44:45;2.60;;;1.30;;
8297;SDS011;4187;42.778;23.242;2023-03-01T06:47:12;1.60;;;1.40;;
8297;SDS011;4187;42.778;23.242;2023-03-01T06:49:38;3.53;;;2.60;;
8297;SDS011;4187;42.778;23.242;2023-03-01T06:52:05;7.50;;;5.00;;
8297;SDS011;4187;42.778;23.242;2023-03-01T06:54:32;6.50;;;5.67;;
8297;SDS011;4187;42.778;23.242;2023-03-01T06:56:59;8.33;;;6.53;;
8297;SDS011;4187;42.778;23.242;2023-03-01T06:59:27;5.93;;;4.93;;
8297;SDS011;4187;42.778;23.242;2023-03-01T07:01:54;9.13;;;7.30;;
8297;SDS011;4187;42.778;23.242;2023-03-01T07:04:21;8.43;;;6.63;;
8297;SDS011;4187;42.778;23.242;2023-03-01T07:06:48;10.47;;;7.43;;
8297;SDS011;4187;42.778;23.242;2023-03-01T07:09:20;15.33;;;10.00;;
8297;SDS011;4187;42.778;23.242;2023-03-01T07:11:47;8.00;;;6.13;;
8297;SDS011;4187;42.778;23.242;2023-03-01T07:14:14;12.37;;;8.57;;
8297;SDS011;4187;42.778;23.242;2023-03-01T07:16:42;5.77;;;3.83;;
8297;SDS011;4187;42.778;23.242;2023-03-01T07:19:09;7.87;;;4.80;;
8297;SDS011;4187;42.778;23.242;2023-03-01T07:21:36;12.43;;;6.53;;
8297;SDS011;4187;42.778;23.242;2023-03-01T07:24:04;9.73;;;6.47;;
8297;SDS011;4187;42.778;23.242;2023-03-01T07:26:31;3.10;;;2.20;;
8297;SDS011;4187;42.778;23.242;2023-03-01T07:28:58;4.17;;;2.03;;
8297;SDS011;4187;42.778;23.242;2023-03-01T07:31:25;4.50;;;3.30;;
8297;SDS011;4187;42.778;23.242;2023-03-01T07:33:55;5.40;;;3.33;;
8297;SDS011;4187;42.778;23.242;2023-03-01T07:36:22;13.80;;;6.80;;
8297;SDS011;4187;42.778;23.242;2023-03-01T07:38:49;5.77;;;4.27;;
8297;SDS011;4187;42.778;23.242;2023-03-01T07:41:16;5.43;;;4.47;;
8297;SDS011;4187;42.778;23.242;2023-03-01T07:43:43;7.93;;;5.07;;
8297;SDS011;4187;42.778;23.242;2023-03-01T07:46:10;9.80;;;5.43;;
8297;SDS011;4187;42.778;23.242;2023-03-01T07:48:37;5.00;;;3.33;;
8297;SDS011;4187;42.778;23.242;2023-03-01T07:51:06;9.27;;;5.00;;
8297;SDS011;4187;42.778;23.242;2023-03-01T07:53:34;3.57;;;3.00;;
8297;SDS011;4187;42.778;23.242;2023-03-01T07:56:01;6.50;;;3.80;;
8297;SDS011;4187;42.778;23.242;2023-03-01T07:58:29;7.50;;;4.50;;
8297;SDS011;4187;42.778;23.242;2023-03-01T08:00:56;11.30;;;6.60;;
8297;SDS011;4187;42.778;23.242;2023-03-01T08:03:27;21.33;;;11.57;;
8297;SDS011;4187;42.778;23.242;2023-03-01T08:05:54;13.50;;;7.30;;
8297;SDS011;4187;42.778;23.242;2023-03-01T08:08:22;4.97;;;3.93;;
8297;SDS011;4187;42.778;23.242;2023-03-01T08:10:49;7.40;;;4.80;;
8297;SDS011;4187;42.778;23.242;2023-03-01T08:13:15;4.57;;;3.63;;
8297;SDS011;4187;42.778;23.242;2023-03-01T08:15:47;5.47;;;2.90;;
8297;SDS011;4187;42.778;23.242;2023-03-01T08:18:14;5.87;;;4.10;;
8297;SDS011;4187;42.778;23.242;2023-03-01T08:20:43;11.63;;;6.47;;
8297;SDS011;4187;42.778;23.242;2023-03-01T08:23:10;2.80;;;2.30;;
8297;SDS011;4187;42.778;23.242;2023-03-01T08:25:38;7.67;;;4.37;;
8297;SDS011;4187;42.778;23.242;2023-03-01T08:28:05;3.77;;;2.60;;
8297;SDS011;4187;42.778;23.242;2023-03-01T08:30:32;8.87;;;4.50;;
8297;SDS011;4187;42.778;23.242;2023-03-01T08:32:59;11.00;;;4.80;;
8297;SDS011;4187;42.778;23.242;2023-03-01T08:35:26;2.40;;;1.87;;
8297;SDS011;4187;42.778;23.242;2023-03-01T08:37:53;1.83;;;1.57;;
8297;SDS011;4187;42.778;23.242;2023-03-01T08:40:19;2.67;;;1.63;;
8297;SDS011;4187;42.778;23.242;2023-03-01T08:42:47;2.57;;;2.13;;
8297;SDS011;4187;42.778;23.242;2023-03-01T08:45:14;4.43;;;2.90;;
8297;SDS011;4187;42.778;23.242;2023-03-01T08:47:43;5.27;;;3.50;;
8297;SDS011;4187;42.778;23.242;2023-03-01T08:50:10;2.57;;;2.20;;
8297;SDS011;4187;42.778;23.242;2023-03-01T08:52:37;5.20;;;3.07;;
8297;SDS011;4187;42.778;23.242;2023-03-01T08:55:04;4.37;;;3.40;;
8297;SDS011;4187;42.778;23.242;2023-03-01T08:57:32;3.43;;;2.90;;
8297;SDS011;4187;42.778;23.242;2023-03-01T09:00:00;2.30;;;2.00;;
8297;SDS011;4187;42.778;23.242;2023-03-01T09:02:28;2.10;;;1.90;;
8297;SDS011;4187;42.778;23.242;2023-03-01T09:04:55;3.00;;;2.67;;
8297;SDS011;4187;42.778;23.242;2023-03-01T09:07:22;2.93;;;2.57;;
8297;SDS011;4187;42.778;23.242;2023-03-01T09:09:53;2.70;;;2.00;;
8297;SDS011;4187;42.778;23.242;2023-03-01T09:12:20;2.77;;;2.10;;
8297;SDS011;4187;42.778;23.242;2023-03-01T09:14:47;2.23;;;2.03;;
8297;SDS011;4187;42.778;23.242;2023-03-01T09:17:15;2.80;;;2.60;;
8297;SDS011;4187;42.778;23.242;2023-03-01T09:19:42;2.80;;;2.60;;
8297;SDS011;4187;42.778;23.242;2023-03-01T09:22:09;2.40;;;2.20;;
8297;SDS011;4187;42.778;23.242;2023-03-01T09:24:36;2.80;;;2.60;;
8297;SDS011;4187;42.778;23.242;2023-03-01T09:27:04;2.83;;;2.60;;
8297;SDS011;4187;42.778;23.242;2023-03-01T09:29:33;2.77;;;2.50;;
8297;SDS011;4187;42.778;23.242;2023-03-01T09:32:01;4.53;;;2.77;;
8297;SDS011;4187;42.778;23.242;2023-03-01T09:34:29;3.20;;;2.90;;
8297;SDS011;4187;42.778;23.242;2023-03-01T09:37:17;4.73;;;3.67;;
8297;SDS011;4187;42.778;23.242;2023-03-01T09:39:44;3.00;;;2.70;;
8297;SDS011;4187;42.778;23.242;2023-03-01T09:42:11;3.50;;;3.20;;
8297;SDS011;4187;42.778;23.242;2023-03-01T09:44:40;5.33;;;4.00;;
8297;SDS011;4187;42.778;23.242;2023-03-01T09:47:12;6.53;;;4.30;;
8297;SDS011;4187;42.778;23.242;2023-03-01T09:49:47;3.40;;;3.10;;
8297;SDS011;4187;42.778;23.242;2023-03-01T09:52:25;5.83;;;4.17;;
8297;SDS011;4187;42.778;23.242;2023-03-01T09:54:59;6.93;;;4.20;;
8297;SDS011;4187;42.778;23.242;2023-03-01T09:57:29;4.10;;;3.20;;
8297;SDS011;4187;42.778;23.242;2023-03-01T10:00:08;4.37;;;3.53;;
8297;SDS011;4187;42.778;23.242;2023-03-01T10:02:44;6.53;;;3.57;;
8297;SDS011;4187;42.778;23.242;2023-03-01T10:05:21;2.37;;;2.17;;
8297;SDS011;4187;42.778;23.242;2023-03-01T10:08:02;4.43;;;3.60;;
8297;SDS011;4187;42.778;23.242;2023-03-01T10:10:46;3.03;;;2.60;;
8297;SDS011;4187;42.778;23.242;2023-03-01T10:13:15;5.40;;;3.20;;
8297;SDS011;4187;42.778;23.242;2023-03-01T10:15:48;2.57;;;2.20;;
8297;SDS011;4187;42.778;23.242;2023-03-01T10:18:20;1.60;;;1.50;;
8297;SDS011;4187;42.778;23.242;2023-03-01T10:20:53;1.67;;;1.57;;
8297;SDS011;4187;42.778;23.242;2023-03-01T10:23:22;1.57;;;1.40;;
8297;SDS011;4187;42.778;23.242;2023-03-01T10:25:55;1.83;;;1.43;;
8297;SDS011;4187;42.778;23.242;2023-03-01T10:28:31;2.33;;;1.40;;
8297;SDS011;4187;42.778;23.242;2023-03-01T10:31:10;1.70;;;1.30;;
8297;SDS011;4187;42.778;23.242;2023-03-01T10:33:39;1.87;;;1.57;;
8297;SDS011;4187;42.778;23.242;2023-03-01T10:36:09;4.67;;;1.70;;
8297;SDS011;4187;42.778;23.242;2023-03-01T10:38:47;2.57;;;1.63;;
8297;SDS011;4187;42.778;23.242;2023-03-01T10:41:17;1.50;;;1.40;;
8297;SDS011;4187;42.778;23.242;2023-03-01T10:43:45;1.73;;;1.63;;
8297;SDS011;4187;42.778;23.242;2023-03-01T10:46:21;2.10;;;1.90;;
8297;SDS011;4187;42.778;23.242;2023-03-01T10:48:58;1.65;;;1.50;;
8297;SDS011;4187;42.778;23.242;2023-03-01T10:51:42;1.67;;;1.42;;
8297;SDS011;4187;42.778;23.242;2023-03-01T10:54:15;1.48;;;1.20;;
8297;SDS011;4187;42.778;23.242;2023-03-01T10:56:48;2.70;;;1.40;;
8297;SDS011;4187;42.778;23.242;2023-03-01T10:59:27;2.08;;;1.40;;
8297;SDS011;4187;42.778;23.242;2023-03-01T11:02:03;2.65;;;2.38;;
8297;SDS011;4187;42.778;23.242;2023-03-01T11:04:43;4.72;;;4.15;;
8297;SDS011;4187;42.778;23.242;2023-03-01T11:07:24;2.35;;;2.00;;
8297;SDS011;4187;42.778;23.242;2023-03-01T11:09:51;2.60;;;2.38;;
8297;SDS011;4187;42.778;23.242;2023-03-01T11:12:19;2.60;;;2.40;;
8297;SDS011;4187;42.778;23.242;2023-03-01T11:14:47;1.73;;;1.50;;
8297;SDS011;4187;42.778;23.242;2023-03-01T11:17:17;2.17;;;1.20;;
8297;SDS011;4187;42.778;23.242;2023-03-01T11:19:59;2.20;;;2.00;;
8297;SDS011;4187;42.778;23.242;2023-03-01T11:22:30;2.25;;;1.63;;
8297;SDS011;4187;42.778;23.242;2023-03-01T11:24:59;4.22;;;1.38;;
8297;SDS011;4187;42.778;23.242;2023-03-01T11:27:28;2.30;;;1.33;;
8297;SDS011;4187;42.778;23.242;2023-03-01T11:29:59;3.30;;;1.42;;
8297;SDS011;4187;42.778;23.242;2023-03-01T11:32:32;3.20;;;2.90;;
8297;SDS011;4187;42.778;23.242;2023-03-01T11:35:08;2.30;;;1.60;;
8297;SDS011;4187;42.778;23.242;2023-03-01T11:37:41;1.90;;;1.67;;
8297;SDS011;4187;42.778;23.242;2023-03-01T11:40:24;4.03;;;3.05;;
8297;SDS011;4187;42.778;23.242;2023-03-01T11:42:56;3.33;;;3.03;;
8297;SDS011;4187;42.778;23.242;2023-03-01T11:45:33;7.83;;;6.40;;
8297;SDS011;4187;42.778;23.242;2023-03-01T11:48:24;9.05;;;6.35;;
8297;SDS011;4187;42.778;23.242;2023-03-01T11:51:00;5.43;;;3.77;;
8297;SDS011;4187;42.778;23.242;2023-03-01T11:53:42;3.80;;;2.67;;
8297;SDS011;4187;42.778;23.242;2023-03-01T11:56:24;2.67;;;2.30;;
8297;SDS011;4187;42.778;23.242;2023-03-01T12:01:57;3.58;;;2.38;;
8297;SDS011;4187;42.778;23.242;2023-03-01T12:04:49;5.10;;;3.80;;
8297;SDS011;4187;42.778;23.242;2023-03-01T12:07:24;2.13;;;1.63;;
8297;SDS011;4187;42.778;23.242;2023-03-01T12:10:12;2.75;;;1.77;;
8297;SDS011;4187;42.778;23.242;2023-03-01T12:12:49;2.15;;;1.95;;
8297;SDS011;4187;42.778;23.242;2023-03-01T12:18:29;3.55;;;1.55;;
8297;SDS011;4187;42.778;23.242;2023-03-01T12:21:11;4.18;;;2.97;;
8297;SDS011;4187;42.778;23.242;2023-03-01T12:23:52;4.38;;;3.05;;
8297;SDS011;4187;42.778;23.242;2023-03-01T12:26:32;2.78;;;1.65;;
8297;SDS011;4187;42.778;23.242;2023-03-01T12:29:09;3.33;;;2.60;;
8297;SDS011;4187;42.778;23.242;2023-03-01T12:34:51;3.00;;;2.30;;
8297;SDS011;4187;42.778;23.242;2023-03-01T12:37:32;3.10;;;2.55;;
8297;SDS011;4187;42.778;23.242;2023-03-01T12:43:24;1.90;;;1.50;;
8297;SDS011;4187;42.778;23.242;2023-03-01T12:46:04;2.97;;;2.55;;
8297;SDS011;4187;42.778;23.242;2023-03-01T12:48:43;3.22;;;1.92;;
8297;SDS011;4187;42.778;23.242;2023-03-01T12:51:20;7.22;;;3.65;;
8297;SDS011;4187;42.778;23.242;2023-03-01T12:53:50;4.75;;;3.58;;
8297;SDS011;4187;42.778;23.242;2023-03-01T12:56:19;6.47;;;4.10;;
8297;SDS011;4187;42.778;23.242;2023-03-01T12:58:54;4.57;;;3.50;;
8297;SDS011;4187;42.778;23.242;2023-03-01T13:01:31;5.97;;;3.50;;
8297;SDS011;4187;42.778;23.242;2023-03-01T13:04:07;5.25;;;2.00;;
8297;SDS011;4187;42.778;23.242;2023-03-01T13:06:41;2.53;;;1.98;;
8297;SDS011;4187;42.778;23.242;2023-03-01T13:09:19;3.97;;;2.20;;
8297;SDS011;4187;42.778;23.242;2023-03-01T13:11:55;3.35;;;2.42;;
8297;SDS011;4187;42.778;23.242;2023-03-01T13:14:44;3.60;;;2.40;;
8297;SDS011;4187;42.778;23.242;2023-03-01T13:19:59;2.92;;;2.50;;
8297;SDS011;4187;42.778;23.242;2023-03-01T13:22:27;15.32;;;10.30;;
8297;SDS011;4187;42.778;23.242;2023-03-01T13:25:01;8.38;;;7.43;;
8297;SDS011;4187;42.778;23.242;2023-03-01T13:27:38;28.30;;;23.15;;
8297;SDS011;4187;42.778;23.242;2023-03-01T13:30:12;27.88;;;18.70;;
8297;SDS011;4187;42.778;23.242;2023-03-01T13:33:33;21.52;;;17.98;;
8297;SDS011;4187;42.778;23.242;2023-03-01T13:36:05;20.60;;;16.63;;
8297;SDS011;4187;42.778;23.242;2023-03-01T13:38:36;14.07;;;12.48;;
8297;SDS011;4187;42.778;23.242;2023-03-01T13:41:12;8.40;;;7.70;;
8297;SDS011;4187;42.778;23.242;2023-03-01T13:43:40;5.88;;;5.38;;
8297;SDS011;4187;42.778;23.242;2023-03-01T13:46:14;4.95;;;3.95;;
8297;SDS011;4187;42.778;23.242;2023-03-01T13:48:44;8.80;;;5.75;;
8297;SDS011;4187;42.778;23.242;2023-03-01T13:51:13;13.52;;;6.20;;
8297;SDS011;4187;42.778;23.242;2023-03-01T13:53:41;8.30;;;4.57;;
8297;SDS011;4187;42.778;23.242;2023-03-01T13:56:12;8.35;;;5.80;;
8297;SDS011;4187;42.778;23.242;2023-03-01T13:58:46;11.32;;;8.48;;
8297;SDS011;4187;42.778;23.242;2023-03-01T14:01:24;14.10;;;7.63;;
8297;SDS011;4187;42.778;23.242;2023-03-01T14:03:53;5.07;;;3.50;;
8297;SDS011;4187;42.778;23.242;2023-03-01T14:06:21;6.88;;;3.63;;
8297;SDS011;4187;42.778;23.242;2023-03-01T14:08:50;10.43;;;4.47;;
8297;SDS011;4187;42.778;23.242;2023-03-01T14:14:31;4.57;;;3.47;;
8297;SDS011;4187;42.778;23.242;2023-03-01T14:17:19;4.57;;;3.53;;
8297;SDS011;4187;42.778;23.242;2023-03-01T14:20:10;5.77;;;3.53;;
8297;SDS011;4187;42.778;23.242;2023-03-01T14:22:41;3.63;;;2.95;;
8297;SDS011;4187;42.778;23.242;2023-03-01T14:25:22;4.60;;;3.00;;
8297;SDS011;4187;42.778;23.242;2023-03-01T14:27:54;6.90;;;5.07;;
8297;SDS011;4187;42.778;23.242;2023-03-01T14:30:25;4.63;;;3.55;;
8297;SDS011;4187;42.778;23.242;2023-03-01T14:32:55;5.72;;;3.13;;
8297;SDS011;4187;42.778;23.242;2023-03-01T14:35:24;6.40;;;3.97;;
8297;SDS011;4187;42.778;23.242;2023-03-01T14:37:52;6.70;;;4.03;;
8297;SDS011;4187;42.778;23.242;2023-03-01T14:40:20;4.85;;;3.35;;
8297;SDS011;4187;42.778;23.242;2023-03-01T14:42:49;8.75;;;5.20;;
8297;SDS011;4187;42.778;23.242;2023-03-01T14:45:16;3.50;;;2.77;;
8297;SDS011;4187;42.778;23.242;2023-03-01T14:47:45;7.68;;;4.85;;
8297;SDS011;4187;42.778;23.242;2023-03-01T14:50:21;4.43;;;3.50;;
8297;SDS011;4187;42.778;23.242;2023-03-01T14:52:51;6.50;;;4.38;;
8297;SDS011;4187;42.778;23.242;2023-03-01T14:55:20;10.48;;;5.22;;
8297;SDS011;4187;42.778;23.242;2023-03-01T14:57:51;4.10;;;2.92;;
8297;SDS011;4187;42.778;23.242;2023-03-01T15:00:19;7.70;;;5.27;;
8297;SDS011;4187;42.778;23.242;2023-03-01T15:02:48;5.27;;;3.63;;
8297;SDS011;4187;42.778;23.242;2023-03-01T15:05:18;5.00;;;4.10;;
8297;SDS011;4187;42.778;23.242;2023-03-01T15:07:51;8.23;;;3.37;;
8297;SDS011;4187;42.778;23.242;2023-03-01T15:12:47;10.60;;;5.37;;
8297;SDS011;4187;42.778;23.242;2023-03-01T15:15:31;9.88;;;5.88;;
8297;SDS011;4187;42.778;23.242;2023-03-01T15:18:00;7.60;;;4.60;;
8297;SDS011;4187;42.778;23.242;2023-03-01T15:20:31;7.17;;;5.70;;
8297;SDS011;4187;42.778;23.242;2023-03-01T15:23:01;6.10;;;3.87;;
8297;SDS011;4187;42.778;23.242;2023-03-01T15:25:30;4.10;;;3.33;;
8297;SDS011;4187;42.778;23.242;2023-03-01T15:27:59;8.67;;;6.57;;
8297;SDS011;4187;42.778;23.242;2023-03-01T15:30:28;6.53;;;5.83;;
8297;SDS011;4187;42.778;23.242;2023-03-01T15:36:29;8.80;;;6.10;;
8297;SDS011;4187;42.778;23.242;2023-03-01T15:38:58;6.67;;;4.87;;
8297;SDS011;4187;42.778;23.242;2023-03-01T15:41:28;14.27;;;8.97;;
8297;SDS011;4187;42.778;23.242;2023-03-01T15:43:57;4.57;;;3.00;;